Time;durP1;ratioP1;P1;durP2;ratioP2;P2;SDS_P1;SDS_P2;PMS_P1;PMS_P2;Temp;Humidity;BMP_temperature;BMP_pressure;BME280_temperature;BME280_humidity;BME280_pressure;Samples;Min_cycle;Max_cycle;Signal;HPM_P1;HPM_P2
2022/01/08 00:02:16;;;;;;;14.73;7.70;;;;;;;-146.48;100.00;46114.69;5280892;28;20036;-67
2022/01/08 00:04:48;;;;;;;13.53;7.53;;;;;;;-146.48;100.00;46144.63;5281085;28;20035;-67
2022/01/08 00:07:19;;;;;;;14.60;7.70;;;;;;;-146.48;100.00;46184.56;5279874;28;20464;-67
2022/01/08 00:09:50;;;;;;;15.80;8.07;;;;;;;-146.48;100.00;46198.53;5280425;28;20029;-68
2022/01/08 00:12:22;;;;;;;15.17;7.47;;;;;;;-146.48;100.00;46130.66;5282491;28;20062;-68
2022/01/08 00:14:54;;;;;;;11.27;7.07;;;;;;;-146.48;100.00;46004.88;5284924;28;20035;-68
2022/01/08 00:17:25;;;;;;;13.60;8.10;;;;;;;-146.48;100.00;46246.44;5284823;28;20463;-68
2022/01/08 00:19:56;;;;;;;16.57;8.27;;;;;;;-146.48;100.00;46302.34;5284714;28;20040;-68
2022/01/08 00:22:28;;;;;;;16.50;8.17;;;;;;;-146.48;100.00;46170.56;5285429;28;20028;-69
2022/01/08 00:24:59;;;;;;;16.07;8.40;;;;;;;-146.48;100.00;46202.53;5283986;28;20025;-69
2022/01/08 00:27:30;;;;;;;13.40;8.57;;;;;;;-146.48;100.00;46186.56;5285513;28;20486;-69
2022/01/08 00:30:02;;;;;;;14.97;8.77;;;;;;;-146.48;100.00;46260.44;5284884;28;20063;-69
2022/01/08 00:32:34;;;;;;;17.23;8.60;;;;;;;-146.48;100.00;46354.28;5284328;28;20051;-69
2022/01/08 00:35:08;;;;;;;21.20;9.07;;;;;;;-146.48;100.00;46280.41;5284501;28;20029;-69
2022/01/08 00:37:39;;;;;;;17.10;10.83;;;;;;;-146.48;100.00;46262.44;5283608;28;20385;-69
2022/01/08 00:40:11;;;;;;;22.27;9.80;;;;;;;-146.48;100.00;46270.41;5285134;28;20036;-69
2022/01/08 00:42:42;;;;;;;17.07;8.87;;;;;;;-146.48;100.00;46154.59;5284552;28;20024;-68
2022/01/08 00:45:13;;;;;;;15.37;8.77;;;;;;;-146.48;100.00;46198.53;5284273;28;20052;-68
2022/01/08 00:47:45;;;;;;;17.40;9.60;;;;;;;-146.48;100.00;46212.50;5283980;28;20051;-67
2022/01/08 00:50:16;;;;;;;17.37;9.00;;;;;;;-146.48;100.00;46254.44;5284977;28;20062;-69
2022/01/08 00:52:48;;;;;;;17.47;8.93;;;;;;;-146.48;100.00;46278.41;5283380;28;20036;-67
2022/01/08 00:55:19;;;;;;;17.17;9.17;;;;;;;-146.48;100.00;46404.19;5284957;28;20486;-67
2022/01/08 00:57:50;;;;;;;17.83;9.47;;;;;;;-146.48;100.00;46452.13;5284325;28;20033;-68
2022/01/08 01:00:22;;;;;;;16.93;10.10;;;;;;;-146.48;100.00;46500.03;5283881;28;20041;-67
2022/01/08 01:02:54;;;;;;;19.17;10.23;;;;;;;-146.48;100.00;46382.22;5284340;28;20024;-68
2022/01/08 01:05:25;;;;;;;19.03;9.23;;;;;;;-146.48;100.00;46547.97;5284429;28;20024;-67
2022/01/08 01:07:56;;;;;;;18.43;10.13;;;;;;;-146.48;100.00;46510.03;5283839;28;20059;-69
2022/01/08 01:10:27;;;;;;;16.83;9.10;;;;;;;-146.48;100.00;46615.84;5284454;28;20054;-68
2022/01/08 01:12:59;;;;;;;16.73;9.50;;;;;;;-146.48;100.00;46707.72;5283044;28;20447;-69
2022/01/08 01:15:30;;;;;;;18.33;9.10;;;;;;;-146.48;100.00;46741.66;5284305;28;20016;-69
2022/01/08 01:18:02;;;;;;;21.03;10.27;;;;;;;-146.48;100.00;46791.56;5283820;28;20031;-70
2022/01/08 01:20:33;;;;;;;16.53;10.17;;;;;;;-146.48;100.00;46811.53;5283433;28;20456;-69
2022/01/08 01:25:40;;;;;;;20.30;10.23;;;;;;;-146.48;100.00;46775.59;5284282;28;20028;-69
2022/01/08 01:47:35;;;;;;;18.77;12.77;;;;;;;-146.48;100.00;46791.56;5283922;28;20107;-69
2022/01/08 01:50:07;;;;;;;22.83;14.63;;;;;;;-146.48;100.00;46795.56;5282514;28;20548;-68
2022/01/08 01:52:39;;;;;;;20.80;14.80;;;;;;;-146.48;100.00;46755.63;5282909;28;20031;-69
2022/01/08 01:55:10;;;;;;;24.60;14.60;;;;;;;-146.48;100.00;46699.72;5282823;28;20376;-69
2022/01/08 01:57:42;;;;;;;26.70;15.63;;;;;;;-146.48;100.00;46683.75;5282992;28;20485;-68
2022/01/08 02:00:14;;;;;;;21.73;15.10;;;;;;;-146.48;100.00;46899.41;5283503;28;20040;-68
2022/01/08 02:02:45;;;;;;;26.83;16.57;;;;;;;-146.48;100.00;46951.34;5281861;28;20028;-68
2022/01/08 02:05:17;;;;;;;21.50;13.73;;;;;;;-146.48;100.00;46829.53;5283547;28;20036;-67
2022/01/08 02:07:48;;;;;;;23.90;15.10;;;;;;;-146.48;100.00;46807.56;5282901;28;20039;-67
2022/01/08 02:10:19;;;;;;;26.03;14.87;;;;;;;-146.48;100.00;46893.41;5282648;28;20028;-67
2022/01/08 02:12:51;;;;;;;22.93;15.47;;;;;;;-146.48;100.00;46865.47;5282676;28;20021;-68
2022/01/08 02:15:22;;;;;;;27.63;15.80;;;;;;;-146.48;100.00;46907.41;5283231;28;20048;-68
2022/01/08 02:17:53;;;;;;;31.40;16.57;;;;;;;-146.48;100.00;46881.44;5282063;28;20031;-68
2022/01/08 02:20:25;;;;;;;25.47;14.43;;;;;;;-146.48;100.00;46909.41;5282948;28;20041;-68
2022/01/08 02:22:56;;;;;;;26.57;15.20;;;;;;;-146.48;100.00;46895.41;5281660;28;20112;-68
2022/01/08 02:25:27;;;;;;;27.17;15.23;;;;;;;-146.48;100.00;46925.38;5282988;28;20107;-68
2022/01/08 02:27:58;;;;;;;24.53;14.37;;;;;;;-146.48;100.00;47031.22;5282432;28;20021;-68
2022/01/08 02:30:30;;;;;;;27.27;15.47;;;;;;;-146.48;100.00;47306.81;5282177;28;20016;-68
2022/01/08 02:33:02;;;;;;;25.83;14.53;;;;;;;-146.48;100.00;47045.19;5282249;28;20062;-68
2022/01/08 02:35:34;;;;;;;29.03;15.37;;;;;;;-146.48;100.00;46919.38;5282385;28;20391;-68
2022/01/08 02:38:05;;;;;;;29.03;15.63;;;;;;;-146.48;100.00;46853.47;5281363;28;20017;-68
2022/01/08 02:40:37;;;;;;;25.77;16.23;;;;;;;-146.48;100.00;46777.59;5282108;28;20031;-68
2022/01/08 02:43:08;;;;;;;24.93;15.57;;;;;;;-146.48;100.00;46813.53;5282798;28;20547;-68
2022/01/08 02:45:39;;;;;;;33.67;16.87;;;;;;;-146.48;100.00;46753.63;5281418;28;20158;-68
2022/01/08 02:48:11;;;;;;;26.10;15.77;;;;;;;-146.48;100.00;46687.75;5282469;28;20044;-68
2022/01/08 02:50:42;;;;;;;24.87;14.63;;;;;;;-146.48;100.00;46689.72;5281819;28;20039;-68
2022/01/08 02:53:13;;;;;;;25.80;16.57;;;;;;;-146.48;100.00;46717.69;5282132;28;20024;-68
2022/01/08 02:55:44;;;;;;;26.80;15.17;;;;;;;-146.48;100.00;46731.66;5282155;28;20035;-68
2022/01/08 02:58:16;;;;;;;26.37;15.43;;;;;;;-146.48;100.00;46699.72;5281629;28;20032;-68
2022/01/08 03:00:47;;;;;;;26.40;15.10;;;;;;;-146.48;100.00;46659.78;5281874;28;20051;-69
2022/01/08 03:03:18;;;;;;;27.00;14.13;;;;;;;-146.48;100.00;46665.78;5282408;28;20147;-68
2022/01/08 03:05:50;;;;;;;29.23;14.50;;;;;;;-146.48;100.00;46641.81;5280852;28;20029;-68
2022/01/08 03:08:21;;;;;;;22.70;14.47;;;;;;;-146.48;100.00;46635.81;5282495;28;20375;-68
2022/01/08 03:10:53;;;;;;;26.03;15.20;;;;;;;-146.48;100.00;46583.91;5281703;28;20017;-68
2022/01/08 03:13:25;;;;;;;28.13;14.30;;;;;;;-146.48;100.00;46689.72;5281454;28;20032;-68
2022/01/08 03:15:56;;;;;;;29.17;14.73;;;;;;;-146.48;100.00;46625.84;5281553;28;20039;-68
2022/01/08 03:18:27;;;;;;;29.90;14.20;;;;;;;-146.48;100.00;46637.81;5282375;28;20029;-68
2022/01/08 03:21:11;;;;;;;28.40;14.60;;;;;;;-146.48;100.00;46617.84;5280837;28;20028;-68
2022/01/08 03:23:49;;;;;;;23.80;13.20;;;;;;;-146.48;100.00;46603.88;5281525;28;20021;-68
2022/01/08 03:26:24;;;;;;;25.93;14.50;;;;;;;-146.48;100.00;46749.63;5281332;28;20028;-69
2022/01/08 03:28:56;;;;;;;26.97;14.30;;;;;;;-146.48;100.00;46587.91;5281644;28;20036;-68
2022/01/08 03:31:27;;;;;;;25.77;14.53;;;;;;;-146.48;100.00;46559.94;5282096;28;20472;-68
2022/01/08 03:33:59;;;;;;;25.73;14.43;;;;;;;-146.48;100.00;46609.84;5280621;28;20035;-68
2022/01/08 03:36:30;;;;;;;22.93;13.30;;;;;;;-146.48;100.00;46621.84;5281900;28;20383;-68
2022/01/08 03:39:02;;;;;;;23.90;12.77;;;;;;;-146.48;100.00;46494.03;5281016;28;20179;-68
2022/01/08 03:41:35;;;;;;;30.17;14.10;;;;;;;-146.48;100.00;46482.06;5281085;28;20383;-68
2022/01/08 03:44:06;;;;;;;32.27;13.90;;;;;;;-146.48;100.00;46458.09;5281210;28;20024;-68
2022/01/08 03:46:38;;;;;;;23.63;13.50;;;;;;;-146.48;100.00;46438.13;5281387;28;20028;-68
2022/01/08 03:51:43;;;;;;;24.73;13.07;;;;;;;-146.48;100.00;46609.84;5285804;28;20539;-68
2022/01/08 03:54:14;;;;;;;24.83;12.97;;;;;;;-146.48;100.00;46559.94;5285647;28;20119;-68
2022/01/08 03:56:46;;;;;;;21.23;11.83;;;;;;;-146.48;100.00;46533.97;5285109;28;20157;-68
2022/01/08 03:59:17;;;;;;;20.93;10.60;;;;;;;-146.48;100.00;46454.09;5285898;28;20033;-68
2022/01/08 04:01:48;;;;;;;21.23;12.23;;;;;;;-146.48;100.00;46392.22;5284516;28;20032;-68
2022/01/08 04:04:20;;;;;;;24.87;12.30;;;;;;;-146.48;100.00;46498.03;5285945;28;20024;-68
2022/01/08 04:06:51;;;;;;;24.30;12.93;;;;;;;-146.48;100.00;46498.03;5285224;28;20025;-68
2022/01/08 04:09:22;;;;;;;26.10;12.30;;;;;;;-146.48;100.00;46571.91;5284981;28;20025;-68
2022/01/08 04:11:55;;;;;;;21.87;11.83;;;;;;;-146.48;100.00;46496.03;5285158;28;20035;-68
2022/01/08 04:14:35;;;;;;;18.57;9.73;;;;;;;-146.48;100.00;46603.88;5285958;28;20028;-68
2022/01/08 04:17:07;;;;;;;23.37;12.50;;;;;;;-146.48;100.00;46502.03;5284427;28;20028;-68
2022/01/08 04:19:38;;;;;;;25.03;11.83;;;;;;;-146.48;100.00;46416.16;5284872;28;20052;-68
2022/01/08 04:22:12;;;;;;;21.70;11.30;;;;;;;-146.48;100.00;46386.22;5285388;28;20056;-68
2022/01/08 04:24:43;;;;;;;22.20;11.57;;;;;;;-146.48;100.00;46482.06;5284192;28;20063;-68
2022/01/08 04:27:15;;;;;;;22.37;10.80;;;;;;;-146.48;100.00;46384.22;5285503;28;20020;-68
2022/01/08 04:29:46;;;;;;;19.17;11.60;;;;;;;-146.48;100.00;46468.09;5284041;28;20025;-68
2022/01/08 04:32:18;;;;;;;26.70;11.40;;;;;;;-146.48;100.00;46354.28;5285358;28;20021;-68
2022/01/08 04:34:49;;;;;;;20.50;11.53;;;;;;;-146.48;100.00;46400.19;5284515;28;20028;-68
2022/01/08 04:37:20;;;;;;;22.63;12.40;;;;;;;-146.48;100.00;46434.13;5284606;28;20024;-67
2022/01/08 04:39:51;;;;;;;21.13;11.90;;;;;;;-146.48;100.00;46557.94;5284363;28;20059;-67
2022/01/08 04:42:23;;;;;;;23.83;12.60;;;;;;;-146.48;100.00;46502.03;5285020;28;20421;-67
2022/01/08 04:44:55;;;;;;;23.67;12.20;;;;;;;-146.48;100.00;46535.97;5283731;28;20498;-67
2022/01/08 04:47:26;;;;;;;24.37;12.33;;;;;;;-146.48;100.00;46595.88;5284804;28;20041;-68
2022/01/08 04:49:57;;;;;;;19.67;10.90;;;;;;;-146.48;100.00;46607.88;5284657;28;20032;-67
2022/01/08 04:52:28;;;;;;;18.17;10.73;;;;;;;-146.48;100.00;46504.03;5284244;28;20024;-67
2022/01/08 04:55:00;;;;;;;18.37;10.70;;;;;;;-146.48;100.00;46593.88;5284135;28;20028;-67
2022/01/08 04:57:31;;;;;;;18.83;10.40;;;;;;;-146.48;100.00;46494.03;5284527;28;20451;-68
2022/01/08 05:00:04;;;;;;;28.73;12.13;;;;;;;-146.48;100.00;46518.00;5282986;28;20032;-68
2022/01/08 05:02:35;;;;;;;20.83;10.40;;;;;;;-146.48;100.00;46424.16;5284664;28;20032;-67
2022/01/08 05:05:08;;;;;;;20.47;10.73;;;;;;;-146.48;100.00;46516.00;5283349;28;20407;-67
2022/01/08 05:07:39;;;;;;;23.37;10.53;;;;;;;-146.48;100.00;46360.25;5284181;28;20024;-67
2022/01/08 05:10:10;;;;;;;24.00;11.23;;;;;;;-146.48;100.00;46498.03;5284544;28;20024;-67
2022/01/08 05:12:42;;;;;;;20.10;10.23;;;;;;;-146.48;100.00;46342.28;5283176;28;20024;-68
2022/01/08 05:15:15;;;;;;;18.73;9.20;;;;;;;-146.48;100.00;46340.28;5284460;28;20039;-68
2022/01/08 05:17:53;;;;;;;27.97;10.27;;;;;;;-146.48;100.00;46230.47;5283908;28;20020;-68
2022/01/08 05:20:29;;;;;;;11.77;6.63;;;;;;;-146.48;100.00;46266.41;5283635;28;20056;-69
2022/01/08 05:23:01;;;;;;;18.47;9.90;;;;;;;-146.48;100.00;46196.53;5283721;28;20056;-68
2022/01/08 05:25:33;;;;;;;16.63;9.20;;;;;;;-146.48;100.00;46212.50;5284204;28;20029;-68
2022/01/08 05:28:05;;;;;;;18.20;9.33;;;;;;;-146.48;100.00;46084.72;5282941;28;20467;-68
2022/01/08 05:30:36;;;;;;;19.77;8.53;;;;;;;-146.48;100.00;46056.78;5283970;28;20032;-68
2022/01/08 05:33:07;;;;;;;20.40;9.30;;;;;;;-146.48;100.00;45988.88;5282981;28;20395;-68
2022/01/08 05:35:39;;;;;;;14.67;8.27;;;;;;;-146.48;100.00;45980.91;5283768;28;20033;-68
2022/01/08 05:38:10;;;;;;;15.27;7.93;;;;;;;-146.48;100.00;46002.88;5284156;28;20085;-68
2022/01/08 05:40:42;;;;;;;13.17;7.90;;;;;;;-146.48;100.00;45907.03;5282678;28;20029;-69
2022/01/08 05:43:13;;;;;;;21.30;8.10;;;;;;;-146.48;100.00;45831.16;5283893;28;20110;-68
2022/01/08 05:45:45;;;;;;;18.67;8.00;;;;;;;-146.48;100.00;45679.44;5283142;28;20040;-68
2022/01/08 05:48:16;;;;;;;19.23;8.70;;;;;;;-146.48;100.00;45627.53;5282872;28;20399;-68
2022/01/08 05:50:49;;;;;;;15.90;7.43;;;;;;;-146.48;100.00;45573.63;5283289;28;20032;-67
2022/01/08 05:53:22;;;;;;;15.37;7.70;;;;;;;-146.48;100.00;45547.69;5283807;28;20384;-67
2022/01/08 05:55:53;;;;;;;18.80;7.47;;;;;;;-146.48;100.00;45507.75;5282256;28;20055;-68
2022/01/08 05:58:24;;;;;;;18.20;7.77;;;;;;;-146.48;100.00;45461.84;5283589;28;20024;-68
2022/01/08 06:00:55;;;;;;;14.87;6.67;;;;;;;-146.48;100.00;45517.75;5282361;28;20101;-68
2022/01/08 06:03:27;;;;;;;15.67;8.23;;;;;;;-146.48;100.00;45687.44;5283623;28;20035;-68
2022/01/08 06:05:58;;;;;;;18.03;7.50;;;;;;;-146.48;100.00;45615.56;5282681;28;20043;-69
2022/01/08 06:08:29;;;;;;;18.90;7.40;;;;;;;-146.48;100.00;45593.59;5282432;28;20028;-68
2022/01/08 06:11:00;;;;;;;18.13;7.50;;;;;;;-146.48;100.00;45559.66;5281713;28;20435;-69
2022/01/08 06:13:32;;;;;;;17.67;8.97;;;;;;;-146.48;100.00;45557.66;5283287;28;20081;-68
2022/01/08 06:16:03;;;;;;;12.93;7.70;;;;;;;-146.48;100.00;45499.78;5281785;28;20031;-68
2022/01/08 06:18:35;;;;;;;19.13;8.30;;;;;;;-146.48;100.00;45505.75;5283217;28;20021;-68
2022/01/08 06:21:07;;;;;;;15.20;7.87;;;;;;;-146.48;100.00;45535.69;5282534;28;20020;-68
2022/01/08 06:23:38;;;;;;;17.43;8.43;;;;;;;-146.48;100.00;45503.75;5281877;28;20029;-69
2022/01/08 06:26:09;;;;;;;17.77;8.93;;;;;;;-146.48;100.00;45579.63;5283009;28;20016;-68
2022/01/08 06:28:41;;;;;;;12.40;7.27;;;;;;;-146.48;100.00;45545.69;5282371;28;20051;-68
2022/01/08 06:31:12;;;;;;;22.87;8.13;;;;;;;-146.48;100.00;45547.69;5282082;28;20017;-68
2022/01/08 06:33:43;;;;;;;18.00;8.47;;;;;;;-146.48;100.00;45531.72;5282283;28;20028;-69
2022/01/08 06:36:17;;;;;;;18.10;8.80;;;;;;;-146.48;100.00;45531.72;5281918;28;20020;-68
2022/01/08 06:38:51;;;;;;;15.73;8.70;;;;;;;-146.48;100.00;45479.81;5282518;28;20020;-68
2022/01/08 06:41:22;;;;;;;16.57;9.07;;;;;;;-146.48;100.00;45493.78;5282606;28;20063;-69
2022/01/08 06:43:53;;;;;;;17.33;8.77;;;;;;;-146.48;100.00;45547.69;5281306;28;20044;-68
2022/01/08 06:46:25;;;;;;;26.27;9.43;;;;;;;-146.48;100.00;45535.69;5282852;28;20028;-68
2022/01/08 06:48:56;;;;;;;15.60;8.17;;;;;;;-146.48;100.00;45497.78;5281885;28;20052;-68
2022/01/08 06:51:28;;;;;;;14.57;8.20;;;;;;;-146.48;100.00;45575.63;5281666;28;20028;-69
2022/01/08 06:53:59;;;;;;;19.27;9.70;;;;;;;-146.48;100.00;45687.44;5281868;28;20435;-69
2022/01/08 06:56:30;;;;;;;18.90;9.10;;;;;;;-146.48;100.00;45625.53;5282269;28;20028;-68
2022/01/08 06:59:01;;;;;;;22.57;9.00;;;;;;;-146.48;100.00;45697.41;5281145;28;20458;-69
2022/01/08 07:01:33;;;;;;;17.10;9.17;;;;;;;-146.48;100.00;45677.44;5282396;28;20036;-69
2022/01/08 07:04:04;;;;;;;22.10;9.40;;;;;;;-146.48;100.00;45777.25;5281814;28;20052;-68
2022/01/08 07:06:35;;;;;;;18.10;9.33;;;;;;;-146.48;100.00;45735.34;5281609;28;20078;-68
2022/01/08 07:09:07;;;;;;;16.27;9.37;;;;;;;-146.48;100.00;45653.50;5281720;28;20054;-69
2022/01/08 07:11:38;;;;;;;18.37;9.03;;;;;;;-146.48;100.00;45629.53;5280998;28;20036;-68
2022/01/08 07:14:09;;;;;;;21.67;9.83;;;;;;;-146.48;100.00;45709.38;5282307;28;20032;-69
2022/01/08 07:16:40;;;;;;;24.17;10.63;;;;;;;-146.48;100.00;45659.47;5281678;28;20021;-69
2022/01/08 07:19:12;;;;;;;21.10;9.10;;;;;;;-146.48;100.00;45723.34;5281418;28;20053;-68
2022/01/08 07:21:43;;;;;;;18.30;9.63;;;;;;;-146.48;100.00;45831.16;5281115;28;20028;-68
2022/01/08 07:24:14;;;;;;;20.27;10.10;;;;;;;-146.48;100.00;45827.19;5282305;28;20036;-68
2022/01/08 07:26:46;;;;;;;23.63;10.30;;;;;;;-146.48;100.00;45831.16;5280805;28;20107;-69
2022/01/08 07:29:17;;;;;;;18.67;9.80;;;;;;;-146.48;100.00;45879.09;5281948;28;20036;-69
2022/01/08 07:31:48;;;;;;;18.43;9.67;;;;;;;-146.48;100.00;45877.09;5281292;28;20051;-69
2022/01/08 07:34:19;;;;;;;19.43;9.57;;;;;;;-146.48;100.00;45915.03;5281112;28;20353;-69
2022/01/08 07:36:51;;;;;;;15.20;8.77;;;;;;;-146.48;100.00;45885.06;5281335;28;20380;-68
2022/01/08 07:39:22;;;;;;;18.70;9.83;;;;;;;-146.48;100.00;45911.03;5281213;28;20491;-68
2022/01/08 07:41:53;;;;;;;21.00;10.93;;;;;;;-146.48;100.00;45927.00;5281274;28;20288;-68
2022/01/08 07:44:24;;;;;;;21.30;9.50;;;;;;;-146.48;100.00;45917.00;5281770;28;20108;-69
2022/01/08 07:46:57;;;;;;;19.30;9.67;;;;;;;-146.48;100.00;46032.81;5280630;28;20033;-69
2022/01/08 07:49:28;;;;;;;19.70;9.53;;;;;;;-146.48;100.00;46014.84;5281743;28;20041;-68
2022/01/08 07:51:59;;;;;;;20.27;9.10;;;;;;;-146.48;100.00;45938.97;5281038;28;20121;-69
2022/01/08 07:54:31;;;;;;;21.03;9.33;;;;;;;-146.48;100.00;45946.97;5281115;28;20375;-69
2022/01/08 07:57:02;;;;;;;22.00;9.73;;;;;;;-146.48;100.00;45901.03;5280983;28;20028;-69
2022/01/08 07:59:34;;;;;;;18.30;9.43;;;;;;;-146.48;100.00;45811.19;5281656;28;20067;-68
2022/01/08 08:02:05;;;;;;;18.17;9.37;;;;;;;-146.48;100.00;45851.13;5280514;28;20462;-69
2022/01/08 08:04:37;;;;;;;19.03;7.80;;;;;;;-146.48;100.00;45835.16;5281564;28;20055;-69
2022/01/08 08:07:08;;;;;;;15.37;8.10;;;;;;;-146.48;100.00;45851.13;5281665;28;20040;-69
2022/01/08 08:09:40;;;;;;;19.63;8.63;;;;;;;-146.48;100.00;45777.25;5280242;28;20063;-69
2022/01/08 08:12:11;;;;;;;19.30;7.53;;;;;;;-146.48;100.00;45663.47;5281692;28;20440;-68
2022/01/08 08:14:42;;;;;;;19.67;7.33;;;;;;;-146.48;100.00;45571.63;5280115;28;20377;-69
2022/01/08 08:17:14;;;;;;;19.37;8.13;;;;;;;-146.48;100.00;45443.88;5281569;28;20366;-68
2022/01/08 08:19:45;;;;;;;19.10;8.10;;;;;;;-146.48;100.00;45437.88;5280815;28;20388;-69
2022/01/08 08:22:16;;;;;;;16.33;7.77;;;;;;;-146.48;100.00;45384.00;5280632;28;20474;-68
2022/01/08 08:24:48;;;;;;;14.70;8.13;;;;;;;-146.48;100.00;45300.16;5281115;28;20021;-69
2022/01/08 08:27:19;;;;;;;20.73;9.20;;;;;;;-146.48;100.00;45360.03;5281370;28;20019;-69
2022/01/08 08:29:50;;;;;;;19.47;9.70;;;;;;;-146.48;100.00;45411.94;5279829;28;20025;-68
2022/01/08 08:32:21;;;;;;;18.87;10.50;;;;;;;-146.48;100.00;45395.97;5281244;28;20021;-68
2022/01/08 08:34:52;;;;;;;16.70;9.67;;;;;;;-146.48;100.00;45419.91;5284098;28;20040;-68
2022/01/08 08:37:24;;;;;;;26.33;11.67;;;;;;;-146.48;100.00;45477.81;5284577;28;20038;-68
2022/01/08 08:39:55;;;;;;;18.03;10.77;;;;;;;-146.48;100.00;45433.91;5284560;28;20028;-68
2022/01/08 08:42:27;;;;;;;21.40;10.73;;;;;;;-146.48;100.00;45288.16;5285051;28;20060;-68
2022/01/08 08:44:58;;;;;;;17.80;8.57;;;;;;;-146.48;100.00;45344.06;5283969;28;20020;-68
2022/01/08 08:47:31;;;;;;;20.10;9.87;;;;;;;-146.48;100.00;45272.19;5284798;28;20045;-69
2022/01/08 08:50:03;;;;;;;22.30;12.17;;;;;;;-146.48;100.00;45288.16;5283488;28;20059;-67
2022/01/08 08:52:34;;;;;;;22.37;12.57;;;;;;;-146.48;100.00;45312.13;5284997;28;20064;-69
2022/01/08 08:55:07;;;;;;;25.53;12.83;;;;;;;-146.48;100.00;45316.13;5284222;28;20025;-67
2022/01/08 08:57:38;;;;;;;24.33;13.27;;;;;;;-146.48;100.00;45338.06;5283357;28;20113;-68
2022/01/08 09:00:10;;;;;;;24.60;12.50;;;;;;;-146.48;100.00;45393.97;5284797;28;20074;-68
2022/01/08 09:02:42;;;;;;;26.10;13.03;;;;;;;-146.48;100.00;45360.03;5283917;28;20074;-67
2022/01/08 09:05:13;;;;;;;24.27;14.17;;;;;;;-146.48;100.00;45399.97;5283935;28;20024;-68
2022/01/08 09:07:45;;;;;;;18.37;11.57;;;;;;;-146.48;100.00;45501.75;5283931;28;20047;-67
2022/01/08 09:10:22;;;;;;;26.03;12.77;;;;;;;-146.48;100.00;45423.91;5284456;28;20022;-67
2022/01/08 09:12:54;;;;;;;23.77;13.77;;;;;;;-146.48;100.00;45350.06;5283243;28;20460;-67
2022/01/08 09:15:26;;;;;;;24.17;13.40;;;;;;;-146.48;100.00;45336.06;5284456;28;20057;-68
2022/01/08 09:17:58;;;;;;;18.30;9.90;;;;;;;-146.48;100.00;45346.06;5282909;28;20029;-68
2022/01/08 09:20:29;;;;;;;23.43;12.70;;;;;;;-146.48;100.00;45174.38;5284190;28;20478;-68
2022/01/08 09:23:01;;;;;;;24.47;13.20;;;;;;;-146.48;100.00;45136.47;5283948;28;20436;-68
2022/01/08 09:25:32;;;;;;;22.50;12.67;;;;;;;-146.48;100.00;45196.34;5283555;28;20067;-68
2022/01/08 09:28:04;;;;;;;22.37;12.53;;;;;;;-146.48;100.00;45196.34;5283773;28;20025;-68
2022/01/08 09:30:35;;;;;;;21.93;13.70;;;;;;;-146.48;100.00;45208.31;5283738;28;20020;-68
2022/01/08 09:33:07;;;;;;;21.77;11.77;;;;;;;-146.48;100.00;45128.47;5282950;28;20098;-68
2022/01/08 09:35:38;;;;;;;24.47;12.87;;;;;;;-146.48;100.00;45128.47;5283662;28;20108;-68
2022/01/08 09:38:09;;;;;;;24.93;13.23;;;;;;;-146.48;100.00;45064.59;5284212;28;20028;-68
2022/01/08 09:40:41;;;;;;;25.83;13.00;;;;;;;-146.48;100.00;45048.63;5282806;28;20036;-68
2022/01/08 09:43:13;;;;;;;23.10;12.70;;;;;;;-146.48;100.00;44988.75;5283815;28;20452;-69
2022/01/08 09:45:44;;;;;;;23.57;12.93;;;;;;;-146.48;100.00;44942.84;5283350;28;20043;-68
2022/01/08 09:48:15;;;;;;;27.65;13.95;;;;;;;-146.48;100.00;44894.94;5282664;28;20040;-68
2022/01/08 09:50:47;;;;;;;26.53;13.57;;;;;;;-146.48;100.00;44839.06;5283271;28;20402;-68
2022/01/08 09:53:19;;;;;;;25.25;13.55;;;;;;;-146.48;100.00;44851.03;5282863;28;20055;-68
2022/01/08 09:55:51;;;;;;;26.33;14.05;;;;;;;-146.48;100.00;44743.25;5283154;28;20537;-68
2022/01/08 09:58:22;;;;;;;26.90;14.63;;;;;;;-146.48;100.00;44699.34;5283702;28;20021;-68
2022/01/08 10:00:53;;;;;;;23.43;13.20;;;;;;;-146.48;100.00;44675.38;5282033;28;20056;-68
2022/01/08 10:03:27;;;;;;;23.80;13.00;;;;;;;-146.48;100.00;44619.50;5283417;28;20033;-68
2022/01/08 10:05:59;;;;;;;25.13;13.67;;;;;;;-146.48;100.00;44513.72;5282860;28;20032;-68
2022/01/08 10:08:32;;;;;;;29.77;15.17;;;;;;;-146.48;100.00;44601.53;5282681;28;20033;-68
2022/01/08 10:11:06;;;;;;;22.10;14.07;;;;;;;-146.48;100.00;44441.88;5282942;28;20024;-68
2022/01/08 10:13:41;;;;;;;25.13;14.48;;;;;;;-146.48;100.00;44342.09;5282558;28;20039;-69
2022/01/08 10:19:23;;;;;;;25.58;12.85;;;;;;;-146.48;100.00;44340.09;5283393;28;20424;-69
2022/01/08 10:21:55;;;;;;;24.47;12.73;;;;;;;-146.48;100.00;44124.56;5281697;28;20024;-69
2022/01/08 10:24:28;;;;;;;28.00;14.35;;;;;;;-146.48;100.00;44058.72;5283100;28;20513;-69
2022/01/08 10:27:03;;;;;;;29.25;13.25;;;;;;;-146.48;100.00;43970.91;5282195;28;20493;-69
2022/01/08 10:29:35;;;;;;;23.50;13.32;;;;;;;-146.48;100.00;43855.19;5282018;28;20017;-69
2022/01/08 10:32:07;;;;;;;26.52;13.70;;;;;;;-146.48;100.00;43966.91;5282249;28;20020;-69
2022/01/08 10:34:48;;;;;;;28.00;13.18;;;;;;;-146.48;100.00;43915.03;5282006;28;20025;-69
2022/01/08 10:37:19;;;;;;;25.13;11.95;;;;;;;-146.48;100.00;43755.41;5280487;28;20033;-69
2022/01/08 10:39:54;;;;;;;28.33;12.85;;;;;;;-146.48;100.00;43731.47;5281187;28;20036;-69
2022/01/08 10:42:25;;;;;;;21.35;13.35;;;;;;;-146.48;100.00;43583.81;5280777;28;20035;-69
2022/01/08 10:44:57;;;;;;;22.05;12.18;;;;;;;-146.48;100.00;43364.31;5280961;28;20392;-68
2022/01/08 10:47:28;;;;;;;19.42;12.25;;;;;;;-146.48;100.00;43296.50;5280975;28;20487;-69
2022/01/08 10:50:05;;;;;;;24.08;11.85;;;;;;;-146.48;100.00;43212.69;5279318;28;20386;-69
2022/01/08 10:52:44;;;;;;;20.17;11.00;;;;;;;-146.48;100.00;43013.19;5281210;28;20023;-69
2022/01/08 10:55:32;;;;;;;18.75;10.88;;;;;;;-146.48;100.00;42873.53;5281201;28;20045;-69
2022/01/08 10:58:03;;;;;;;20.48;11.85;;;;;;;-146.48;100.00;42703.97;5279532;28;20119;-68
2022/01/08 11:00:34;;;;;;;21.58;11.55;;;;;;;-146.48;100.00;42584.28;5280932;28;20502;-68
2022/01/08 11:03:06;;;;;;;20.13;11.15;;;;;;;-146.48;100.00;42598.25;5280249;28;20375;-68
2022/01/08 11:06:00;;;;;;;18.55;10.00;;;;;;;-146.48;100.00;42598.25;5280008;28;20036;-69
2022/01/08 11:08:31;;;;;;;19.02;10.18;;;;;;;-146.48;100.00;42494.50;5280976;28;20024;-68
2022/01/08 11:11:02;;;;;;;14.95;7.38;;;;;;;-146.48;100.00;42436.66;5279624;28;20033;-69
2022/01/08 11:13:36;;;;;;;15.30;8.70;;;;;;;-146.48;100.00;42382.81;5281127;28;20411;-69
2022/01/08 11:16:07;;;;;;;19.20;9.95;;;;;;;-146.48;100.00;42287.06;5280130;28;20150;-69
2022/01/08 11:18:39;;;;;;;15.57;9.15;;;;;;;-146.48;100.00;42221.25;5279743;28;20037;-69
2022/01/08 11:21:11;;;;;;;14.80;6.82;;;;;;;-146.48;100.00;42101.56;5280758;28;20028;-68
2022/01/08 11:23:42;;;;;;;12.98;6.72;;;;;;;-146.48;100.00;42057.69;5280232;28;20033;-69
2022/01/08 11:26:13;;;;;;;13.18;5.90;;;;;;;-146.48;100.00;41860.22;5280088;28;20029;-69
2022/01/08 11:28:48;;;;;;;11.65;7.15;;;;;;;-146.48;100.00;41702.66;5279967;28;20021;-69
2022/01/08 11:31:20;;;;;;;14.75;7.70;;;;;;;-146.48;100.00;41602.94;5280570;28;20020;-68
2022/01/08 11:33:56;;;;;;;13.80;6.85;;;;;;;-146.48;100.00;41602.94;5279175;28;20025;-69
2022/01/08 11:36:29;;;;;;;10.35;6.68;;;;;;;-146.48;100.00;41491.28;5280357;28;20074;-69
2022/01/08 11:39:02;;;;;;;13.57;5.57;;;;;;;-146.48;100.00;41295.84;5279361;28;20021;-69
2022/01/08 11:41:33;;;;;;;13.27;6.05;;;;;;;-146.48;100.00;41094.44;5279971;28;20116;-69
2022/01/08 11:44:05;;;;;;;13.45;7.43;;;;;;;-146.48;100.00;40962.84;5279839;28;20703;-69
2022/01/08 11:46:37;;;;;;;10.15;4.15;;;;;;;-146.48;100.00;40737.53;5279650;28;20085;-69